createdAt,value
2022-08-03T00:02:28.014Z,97409.56
2022-08-03T00:05:29.594Z,97406.03
2022-08-03T00:08:31.260Z,97404.44
2022-08-03T00:11:34.086Z,97404.78
2022-08-03T00:14:35.766Z,97403.31
2022-08-03T00:17:53.645Z,97399.63
2022-08-03T00:20:55.792Z,97402.53
2022-08-03T00:23:58.594Z,97395.75
2022-08-03T00:27:00.119Z,97407.22
2022-08-03T00:30:01.635Z,97413.56
2022-08-03T00:33:03.812Z,97405.41
2022-08-03T00:36:05.593Z,97399.88
2022-08-03T00:39:07.146Z,97399.53
2022-08-03T00:42:09.557Z,97411.28
2022-08-03T00:45:11.167Z,97407.16
2022-08-03T00:48:19.545Z,97408.56
2022-08-03T00:51:34.542Z,97395.63
2022-08-03T00:54:38.272Z,97395.06
2022-08-03T00:57:39.974Z,97399.34
2022-08-03T01:00:41.872Z,97394.13
2022-08-03T01:03:43.419Z,97388.47
2022-08-03T01:07:11.791Z,97396.22
2022-08-03T01:10:26.112Z,97393.94
2022-08-03T01:13:59.934Z,97389.41
2022-08-03T01:16:59.849Z,97388.75
2022-08-03T01:20:10.700Z,97389.41
2022-08-03T01:23:18.355Z,97381.47
2022-08-03T01:26:56.071Z,97375.41
2022-08-03T01:30:07.609Z,97378.97
2022-08-03T01:33:18.981Z,97371.41
2022-08-03T01:36:28.757Z,97375.47
2022-08-03T01:39:33.134Z,97365.09
2022-08-03T01:42:36.573Z,97368.09
2022-08-03T01:45:39.779Z,97368.47
2022-08-03T01:48:43.359Z,97365.13
2022-08-03T01:51:57.907Z,97374.59
2022-08-03T01:55:07.670Z,97372.66
2022-08-03T01:58:11.539Z,97379.78
2022-08-03T02:01:18.856Z,97375.38
2022-08-03T02:04:22.577Z,97377.75
2022-08-03T02:07:27.220Z,97369.41
2022-08-03T02:10:34.563Z,97365.69
2022-08-03T02:13:42.103Z,97373.50
2022-08-03T02:16:47.289Z,97368.19
2022-08-03T02:20:01.939Z,97366.47
2022-08-03T02:23:08.741Z,97372.38
2022-08-03T02:26:17.581Z,97375.56
2022-08-03T02:29:38.854Z,97369.91
2022-08-03T02:32:50.055Z,97371.84
2022-08-03T02:35:59.061Z,97362.78
2022-08-03T02:39:03.643Z,97362.84
2022-08-03T02:42:09.468Z,97372.16
2022-08-03T02:56:11.718Z,97367.38
2022-08-03T03:15:00.636Z,97369.59
2022-08-03T03:19:19.138Z,97366.94
2022-08-03T03:22:51.285Z,97359.59
2022-08-03T03:26:00.731Z,97366.94
2022-08-03T03:29:30.776Z,97356.56
2022-08-03T03:40:32.509Z,97354.91
2022-08-03T03:48:53.911Z,97361.94
2022-08-03T04:16:56.151Z,97369.28
2022-08-03T04:20:15.686Z,97369.97
2022-08-03T04:23:53.483Z,97372.13
2022-08-03T04:27:34.313Z,97372.41
2022-08-03T04:30:49.186Z,97364.09
2022-08-03T04:33:53.896Z,97374.56
2022-08-03T04:37:00.408Z,97372.72
2022-08-03T04:40:06.366Z,97384.31
2022-08-03T04:43:22.115Z,97377.09
2022-08-03T04:46:50.533Z,97386.34
2022-08-03T04:49:55.885Z,97394.06
2022-08-03T04:52:57.537Z,97384.25
2022-08-03T04:56:06.078Z,97395.56
2022-08-03T04:59:08.365Z,97398.09
2022-08-03T05:02:10.027Z,97397.91
2022-08-03T05:05:11.973Z,97397.66
2022-08-03T05:08:14.265Z,97397.38
2022-08-03T05:11:16.938Z,97402.09
2022-08-03T05:14:18.581Z,97402.44
2022-08-03T05:17:30.095Z,97404.13
2022-08-03T05:20:32.267Z,97408.31
2022-08-03T05:23:33.904Z,97412.34
2022-08-03T05:26:35.536Z,97414.38
2022-08-03T05:29:36.994Z,97408.84
2022-08-03T05:32:38.505Z,97412.38
2022-08-03T05:35:57.301Z,97406.16
2022-08-03T05:39:02.968Z,97414.53
2022-08-03T05:42:04.777Z,97405.81
2022-08-03T05:45:15.581Z,97411.88
2022-08-03T05:48:17.130Z,97423.13
2022-08-03T05:51:19.020Z,97418.22
2022-08-03T05:54:20.527Z,97403.03
2022-08-03T05:57:22.165Z,97409.53
2022-08-03T06:00:24.171Z,97408.28
2022-08-03T06:03:27.323Z,97409.91
2022-08-03T06:06:32.153Z,97410.22
2022-08-03T06:10:34.866Z,97407.84
2022-08-03T06:12:55.910Z,97413.47
2022-08-03T06:15:57.722Z,97404.06
2022-08-03T06:18:59.272Z,97402.34
2022-08-03T06:22:00.921Z,97407.09
2022-08-03T06:25:07.513Z,97393.59
2022-08-03T06:28:35.288Z,97402.72
2022-08-03T06:31:35.406Z,97393.41
2022-08-03T06:34:36.857Z,97390.06
2022-08-03T06:37:51.695Z,97390.25
2022-08-03T06:40:53.159Z,97390.81
2022-08-03T06:44:03.014Z,97390.13
2022-08-03T06:47:05.893Z,97395.22
2022-08-03T06:50:16.603Z,97393.25
2022-08-03T06:53:21.321Z,97392.34
2022-08-03T06:56:23.125Z,97394.06
2022-08-03T07:00:09.904Z,97393.63
2022-08-03T07:02:46.545Z,97402.50
2022-08-03T07:05:49.158Z,97399.25
2022-08-03T07:08:53.642Z,97401.00
2022-08-03T07:11:57.160Z,97396.09
2022-08-03T07:15:01.883Z,97386.88
2022-08-03T07:18:04.361Z,97389.94
2022-08-03T07:21:05.862Z,97385.25
2022-08-03T07:24:07.422Z,97379.44
2022-08-03T07:27:09.713Z,97389.28
2022-08-03T07:30:11.725Z,97379.53
2022-08-03T07:33:13.344Z,97383.13
2022-08-03T07:36:14.840Z,97387.50
2022-08-03T07:39:18.018Z,97383.75
2022-08-03T07:42:20.398Z,97388.41
2022-08-03T07:45:23.373Z,97386.75
2022-08-03T07:48:24.953Z,97385.47
2022-08-03T07:51:26.484Z,97384.88
2022-08-03T07:54:27.946Z,97384.03
2022-08-03T07:57:29.864Z,97376.94
2022-08-03T08:00:32.066Z,97372.28
2022-08-03T08:03:52.214Z,97372.66
2022-08-03T08:06:54.575Z,97375.13
2022-08-03T08:09:57.361Z,97371.78
2022-08-03T08:12:59.122Z,97366.91
2022-08-03T08:16:01.077Z,97375.69
2022-08-03T08:19:02.602Z,97374.78
2022-08-03T08:22:04.349Z,97373.66
2022-08-03T08:25:07.436Z,97373.31
2022-08-03T08:28:29.458Z,97370.78
2022-08-03T08:31:30.472Z,97375.91
2022-08-03T08:34:32.416Z,97378.47
2022-08-03T08:37:34.255Z,97372.91
2022-08-03T08:40:35.793Z,97371.31
2022-08-03T08:43:37.407Z,97366.31
2022-08-03T08:46:40.406Z,97361.47
2022-08-03T08:49:58.211Z,97367.53
2022-08-03T08:53:07.014Z,97360.00
2022-08-03T08:56:16.825Z,97361.22
2022-08-03T08:59:18.774Z,97365.84
2022-08-03T09:02:20.542Z,97364.72
2022-08-03T09:05:35.714Z,97367.06
2022-08-03T09:08:37.783Z,97362.06
2022-08-03T09:12:00.405Z,97366.31
2022-08-03T09:15:31.263Z,97364.19
2022-08-03T09:18:33.352Z,97360.19
2022-08-03T09:21:35.119Z,97361.13
2022-08-03T09:24:41.540Z,97347.97
2022-08-03T09:27:44.741Z,97348.00
2022-08-03T09:30:59.140Z,97350.63
2022-08-03T09:34:02.493Z,97347.06
2022-08-03T09:37:14.790Z,97355.16
2022-08-03T09:40:34.351Z,97354.19
2022-08-03T09:43:46.414Z,97350.88
2022-08-03T09:46:52.122Z,97354.81
2022-08-03T09:50:08.842Z,97354.63
2022-08-03T09:53:12.203Z,97349.47
2022-08-03T09:56:34.378Z,97346.88
2022-08-03T09:59:35.349Z,97346.53
2022-08-03T10:02:42.556Z,97347.94
2022-08-03T10:05:45.251Z,97344.50
2022-08-03T10:08:47.319Z,97337.72
2022-08-03T10:11:49.390Z,97342.13
2022-08-03T10:14:52.302Z,97337.56
2022-08-03T10:17:53.803Z,97336.56
2022-08-03T10:21:03.172Z,97333.97
2022-08-03T10:24:07.389Z,97333.78
2022-08-03T10:27:13.392Z,97328.31
2022-08-03T10:30:15.617Z,97336.22
2022-08-03T10:33:51.180Z,97332.31
2022-08-03T10:36:44.158Z,97320.91
2022-08-03T10:39:54.528Z,97324.19
2022-08-03T10:43:03.410Z,97317.75
2022-08-03T10:46:08.398Z,97317.22
2022-08-03T10:49:13.745Z,97312.06
2022-08-03T10:52:33.723Z,97312.66
2022-08-03T10:56:00.133Z,97313.63
2022-08-03T10:59:03.873Z,97305.03
2022-08-03T11:02:08.265Z,97302.72
2022-08-03T11:05:26.776Z,97303.56
2022-08-03T11:08:34.766Z,97296.06
2022-08-03T11:11:43.837Z,97304.13
2022-08-03T11:14:48.105Z,97300.91
2022-08-03T11:18:11.166Z,97295.41
2022-08-03T11:21:12.980Z,97289.34
2022-08-03T11:24:36.387Z,97283.22
2022-08-03T11:27:38.849Z,97291.31
2022-08-03T11:30:41.280Z,97282.69
2022-08-03T11:34:02.652Z,97276.13
2022-08-03T11:37:22.120Z,97284.28
2022-08-03T11:40:44.518Z,97281.78
2022-08-03T11:43:46.745Z,97279.38
2022-08-03T11:46:48.530Z,97280.47
2022-08-03T11:49:53.634Z,97281.19
2022-08-03T11:52:55.149Z,97275.84
2022-08-03T11:56:02.305Z,97272.41
2022-08-03T11:59:20.382Z,97271.97
2022-08-03T12:02:23.441Z,97272.03
2022-08-03T12:05:51.054Z,97271.59
2022-08-03T12:08:53.857Z,97265.78
2022-08-03T12:12:00.214Z,97269.06
2022-08-03T12:15:03.418Z,97262.47
2022-08-03T12:18:15.471Z,97259.75
2022-08-03T12:21:18.740Z,97261.00
2022-08-03T12:24:20.212Z,97259.97
2022-08-03T12:27:26.465Z,97254.19
2022-08-03T12:30:28.361Z,97265.22
2022-08-03T12:33:29.889Z,97256.22
2022-08-03T12:36:34.268Z,97247.47
2022-08-03T12:39:35.927Z,97255.09
2022-08-03T12:42:57.481Z,97239.84
2022-08-03T12:46:13.600Z,97241.50
2022-08-03T12:49:17.101Z,97242.91
2022-08-03T12:52:20.766Z,97234.78
2022-08-03T12:55:22.980Z,97231.97
2022-08-03T12:58:34.142Z,97228.06
2022-08-03T13:01:37.415Z,97224.63
2022-08-03T13:04:38.979Z,97230.44
2022-08-03T13:07:46.074Z,97222.31
2022-08-03T13:10:48.343Z,97221.47
2022-08-03T13:13:51.443Z,97220.53
2022-08-03T13:16:52.934Z,97224.97
2022-08-03T13:19:54.713Z,97224.84
2022-08-03T13:23:00.607Z,97225.66
2022-08-03T13:26:02.493Z,97216.19
2022-08-03T13:29:03.981Z,97219.56
2022-08-03T13:32:06.185Z,97214.66
2022-08-03T13:35:09.282Z,97221.03
2022-08-03T13:38:10.915Z,97215.53
2022-08-03T13:41:15.516Z,97210.47
2022-08-03T13:44:29.341Z,97212.03
2022-08-03T13:47:31.463Z,97213.63
2022-08-03T13:50:33.233Z,97202.75
2022-08-03T13:53:34.727Z,97201.72
2022-08-03T13:56:36.206Z,97197.28
2022-08-03T13:59:38.207Z,97199.38
2022-08-03T14:02:39.755Z,97199.88
2022-08-03T14:05:43.196Z,97200.03
2022-08-03T14:08:45.213Z,97188.66
2022-08-03T14:12:06.966Z,97191.75
2022-08-03T14:15:10.057Z,97199.19
2022-08-03T14:18:12.594Z,97190.34
2022-08-03T14:21:14.622Z,97186.63
2022-08-03T14:24:16.110Z,97184.31
2022-08-03T14:27:17.610Z,97182.88
2022-08-03T14:30:19.540Z,97187.59
2022-08-03T14:33:21.219Z,97181.81
2022-08-03T14:36:22.799Z,97184.94
2022-08-03T14:39:24.468Z,97172.41
2022-08-03T14:42:26.017Z,97177.44
2022-08-03T14:45:27.565Z,97179.66
2022-08-03T14:50:33.886Z,97177.00
2022-08-03T14:51:51.634Z,97169.72
2022-08-03T14:54:55.604Z,97167.91
2022-08-03T14:57:57.047Z,97166.84
2022-08-03T15:00:58.508Z,97170.88
2022-08-03T15:04:00.041Z,97157.00
2022-08-03T15:07:01.562Z,97153.66
2022-08-03T15:10:03.327Z,97155.94
2022-08-03T15:13:04.905Z,97151.50
2022-08-03T15:16:06.446Z,97152.97
2022-08-03T15:20:05.485Z,97144.16
2022-08-03T15:22:34.622Z,97147.13
2022-08-03T15:26:28.792Z,97134.25
2022-08-03T15:28:58.451Z,97137.56
2022-08-03T15:32:00.366Z,97134.25
2022-08-03T15:35:01.923Z,97139.19
2022-08-03T15:38:09.020Z,97120.97
2022-08-03T15:41:13.746Z,97120.66
2022-08-03T15:44:19.380Z,97125.81
2022-08-03T15:47:21.156Z,97129.06
2022-08-03T15:50:22.893Z,97116.56
2022-08-03T15:53:24.416Z,97122.47
2022-08-03T15:56:27.226Z,97124.34
2022-08-03T15:59:28.944Z,97119.56
2022-08-03T16:02:30.514Z,97117.25
2022-08-03T16:05:32.259Z,97112.31
2022-08-03T16:08:34.510Z,97109.78
2022-08-03T16:11:35.990Z,97099.38
2022-08-03T16:14:50.773Z,97104.06
2022-08-03T16:17:53.776Z,97102.94
2022-08-03T16:20:55.226Z,97096.41
2022-08-03T16:23:57.403Z,97099.09
2022-08-03T16:27:00.734Z,97105.69
2022-08-03T16:30:03.096Z,97098.19
2022-08-03T16:33:04.872Z,97097.44
2022-08-03T16:36:06.586Z,97092.53
2022-08-03T16:39:08.115Z,97098.34
2022-08-03T16:42:09.658Z,97090.50
2022-08-03T16:45:11.398Z,97090.13
2022-08-03T16:48:12.910Z,97080.53
2022-08-03T16:51:14.354Z,97079.22
2022-08-03T16:54:15.907Z,97080.84
2022-08-03T16:57:56.052Z,97081.16
2022-08-03T17:00:42.947Z,97083.09
2022-08-03T17:04:02.140Z,97075.16
2022-08-03T17:07:06.865Z,97082.44
2022-08-03T17:10:10.362Z,97082.75
2022-08-03T17:13:13.066Z,97087.06
2022-08-03T17:16:23.605Z,97093.09
2022-08-03T17:19:26.317Z,97089.97
2022-08-03T17:22:34.506Z,97087.16
2022-08-03T17:26:01.797Z,97086.53
2022-08-03T17:29:11.208Z,97086.69
2022-08-03T17:32:21.114Z,97090.47
2022-08-03T17:35:23.440Z,97096.69
2022-08-03T17:38:26.060Z,97099.88
2022-08-03T17:41:33.641Z,97093.41
2022-08-03T17:44:46.027Z,97095.41
2022-08-03T17:47:57.550Z,97094.41
2022-08-03T17:51:06.537Z,97108.50
2022-08-03T17:54:23.838Z,97103.47
2022-08-03T17:58:02.497Z,97106.28
2022-08-03T18:01:59.675Z,97107.38
2022-08-03T18:04:45.067Z,97110.97
2022-08-03T18:08:02.403Z,97113.38
2022-08-03T18:11:14.504Z,97120.22
2022-08-03T18:18:10.729Z,97115.28
2022-08-03T18:21:17.068Z,97124.63
2022-08-03T18:24:20.123Z,97122.22
2022-08-03T18:27:45.634Z,97125.88
2022-08-03T18:30:53.975Z,97120.34
2022-08-03T18:34:18.285Z,97122.31
2022-08-03T18:37:25.878Z,97123.28
2022-08-03T18:40:30.858Z,97123.50
2022-08-03T18:43:46.521Z,97125.41
2022-08-03T18:46:49.196Z,97118.31
2022-08-03T18:50:19.109Z,97124.28
2022-08-03T18:53:23.602Z,97119.56
2022-08-03T18:56:53.897Z,97128.00
2022-08-03T19:00:10.541Z,97114.97
2022-08-03T19:03:22.255Z,97122.53
2022-08-03T19:06:27.639Z,97119.44
2022-08-03T19:09:40.418Z,97131.38
2022-08-03T19:12:50.654Z,97128.03
2022-08-03T19:15:56.807Z,97128.47
2022-08-03T19:19:00.689Z,97130.50
2022-08-03T19:22:04.776Z,97132.41
2022-08-03T19:25:12.090Z,97134.53
2022-08-03T19:28:15.954Z,97138.75
2022-08-03T19:31:20.549Z,97142.03
2022-08-03T19:34:24.461Z,97147.75
2022-08-03T19:37:38.723Z,97147.25
2022-08-03T19:40:44.828Z,97150.72
2022-08-03T19:43:58.233Z,97152.09
2022-08-03T19:47:07.505Z,97150.84
2022-08-03T19:50:13.846Z,97154.41
2022-08-03T19:53:15.988Z,97151.03
2022-08-03T19:56:23.645Z,97149.22
2022-08-03T19:59:26.894Z,97150.97
2022-08-03T20:02:29.858Z,97150.09
2022-08-03T20:05:44.949Z,97151.81
2022-08-03T20:08:53.658Z,97154.16
2022-08-03T20:11:56.338Z,97153.09
2022-08-03T20:14:59.230Z,97160.25
2022-08-03T20:18:00.856Z,97155.94
2022-08-03T20:21:06.402Z,97160.72
2022-08-03T20:24:24.550Z,97160.59
2022-08-03T20:27:30.043Z,97165.75
2022-08-03T20:30:32.014Z,97164.91
2022-08-03T20:33:46.212Z,97162.34
2022-08-03T20:36:50.049Z,97153.31
2022-08-03T20:39:51.660Z,97153.47
2022-08-03T20:42:55.297Z,97156.00
2022-08-03T20:46:00.321Z,97157.09
2022-08-03T20:49:21.238Z,97153.13
2022-08-03T20:52:26.171Z,97153.19
2022-08-03T20:55:48.209Z,97158.84
2022-08-03T20:58:50.985Z,97155.47
2022-08-03T21:01:52.534Z,97154.59
2022-08-03T21:04:56.504Z,97156.06
2022-08-03T21:08:06.879Z,97149.66
2022-08-03T21:11:18.542Z,97149.88
2022-08-03T21:12:57.248Z,97127.91
2022-08-03T21:14:27.719Z,97151.06
2022-08-03T21:17:40.326Z,97158.22
2022-08-03T21:20:43.591Z,97151.72
2022-08-03T21:23:50.103Z,97147.31
2022-08-03T21:26:53.877Z,97149.72
2022-08-03T21:29:55.694Z,97148.50
2022-08-03T21:32:58.702Z,97145.41
2022-08-03T21:36:01.942Z,97146.63
2022-08-03T21:39:08.337Z,97148.66
2022-08-03T21:42:09.882Z,97147.81
2022-08-03T21:45:17.095Z,97147.63
2022-08-03T21:48:21.543Z,97138.25
2022-08-03T21:51:26.095Z,97144.34
2022-08-03T21:54:35.010Z,97139.53
2022-08-03T21:57:39.742Z,97140.38
2022-08-03T22:00:43.334Z,97146.84
2022-08-03T22:03:53.058Z,97138.50
2022-08-03T22:06:55.803Z,97141.84
2022-08-03T22:09:59.138Z,97144.75
2022-08-03T22:13:00.768Z,97148.31
2022-08-03T22:16:02.566Z,97146.44
2022-08-03T22:19:04.253Z,97137.22
2022-08-03T22:22:09.203Z,97145.72
2022-08-03T22:25:16.048Z,97152.69
2022-08-03T22:28:19.004Z,97151.88
2022-08-03T22:31:30.756Z,97155.84
2022-08-03T22:34:45.429Z,97162.78
2022-08-03T22:37:49.634Z,97153.09
2022-08-03T22:40:52.533Z,97155.78
2022-08-03T22:43:54.474Z,97153.09
2022-08-03T22:46:56.780Z,97150.59
2022-08-03T22:50:31.210Z,97161.88
2022-08-03T22:53:21.795Z,97160.91
2022-08-03T22:56:23.499Z,97162.19
2022-08-03T22:59:40.544Z,97158.69
2022-08-03T23:02:45.513Z,97163.09
2022-08-03T23:06:02.232Z,97155.78
2022-08-03T23:09:12.842Z,97162.19
2022-08-03T23:12:20.217Z,97165.38
2022-08-03T23:15:26.262Z,97162.03
2022-08-03T23:18:34.117Z,97164.34
2022-08-03T23:21:53.873Z,97168.13
2022-08-03T23:25:03.619Z,97164.84
2022-08-03T23:28:08.674Z,97171.19
2022-08-03T23:31:10.845Z,97172.41
2022-08-03T23:34:34.669Z,97165.25
2022-08-03T23:38:03.992Z,97167.25
2022-08-03T23:41:02.327Z,97168.44
2022-08-03T23:44:04.495Z,97165.56
2022-08-03T23:47:06.045Z,97159.19
2022-08-03T23:50:07.966Z,97159.38
2022-08-03T23:53:31.017Z,97164.59
2022-08-03T23:57:04.638Z,97166.72
